FBSK/GBE METAR and TAF weather

Enter ICAO airport designator
Station Type Date Time Source
FBSK METAR 2021/05/11 01:00 UTC NOAA

FBSK 110100Z 23003KT CAVOK 09/05 Q1025 NOSIG


Station Type Date Time Source
FBSK Decoded METAR 2021/05/11 01:00 UTC NOAA

Seretse Khama International Airport, Botswana (FBSK) 24-13S 025-55E 1005M
May 10, 2021 - 09:00 PM EDT / 2021.05.11 0100 UTC
Wind: from the SW (230 degrees) at 3 MPH (3 KT):0
Visibility: greater than 7 mile(s):0
Temperature: 48 F (9 C)
Dew Point: 41 F (5 C)
Relative Humidity: 75%
Pressure (altimeter): 30.27 in. Hg (1025 hPa)
ob: FBSK 110100Z 23003KT CAVOK 09/05 Q1025 NOSIG
cycle: 1

Station Type Date Time Source
FBSK TAF 2021/05/10 18:21 UTC NOAA

TAF FBSK 101500Z 1018/1124 20006KT CAVOK
BECMG 1109/1111 05005KT

Example: see airport list